sensor_id;sensor_type;location;lat;lon;timestamp;P1;durP1;ratioP1;P2;durP2;ratioP2
9763;SDS011;4921;43.214;27.936;2023-04-01T00:00:35;5.87;;;5.17;;
9763;SDS011;4921;43.214;27.936;2023-04-01T00:03:02;6.67;;;5.27;;
9763;SDS011;4921;43.214;27.936;2023-04-01T00:05:29;8.43;;;4.43;;
9763;SDS011;4921;43.214;27.936;2023-04-01T00:07:56;7.30;;;4.93;;
9763;SDS011;4921;43.214;27.936;2023-04-01T00:10:23;5.23;;;4.57;;
9763;SDS011;4921;43.214;27.936;2023-04-01T00:12:49;8.00;;;4.93;;
9763;SDS011;4921;43.214;27.936;2023-04-01T00:15:18;6.53;;;5.20;;
9763;SDS011;4921;43.214;27.936;2023-04-01T00:17:45;10.77;;;4.83;;
9763;SDS011;4921;43.214;27.936;2023-04-01T00:20:13;9.20;;;4.83;;
9763;SDS011;4921;43.214;27.936;2023-04-01T00:22:40;5.90;;;4.00;;
9763;SDS011;4921;43.214;27.936;2023-04-01T00:25:08;6.17;;;4.90;;
9763;SDS011;4921;43.214;27.936;2023-04-01T00:27:35;8.70;;;5.10;;
9763;SDS011;4921;43.214;27.936;2023-04-01T00:30:03;10.40;;;4.57;;
9763;SDS011;4921;43.214;27.936;2023-04-01T00:32:32;7.07;;;4.90;;
9763;SDS011;4921;43.214;27.936;2023-04-01T00:34:59;6.20;;;4.40;;
9763;SDS011;4921;43.214;27.936;2023-04-01T00:37:26;8.90;;;4.70;;
9763;SDS011;4921;43.214;27.936;2023-04-01T00:39:54;7.07;;;4.10;;
9763;SDS011;4921;43.214;27.936;2023-04-01T00:42:21;9.07;;;4.93;;
9763;SDS011;4921;43.214;27.936;2023-04-01T00:44:49;5.30;;;4.00;;
9763;SDS011;4921;43.214;27.936;2023-04-01T00:47:17;9.33;;;4.20;;
9763;SDS011;4921;43.214;27.936;2023-04-01T00:49:48;9.40;;;4.47;;
9763;SDS011;4921;43.214;27.936;2023-04-01T00:52:17;11.40;;;4.43;;
9763;SDS011;4921;43.214;27.936;2023-04-01T00:54:48;9.60;;;4.30;;
9763;SDS011;4921;43.214;27.936;2023-04-01T00:57:18;5.23;;;4.17;;
9763;SDS011;4921;43.214;27.936;2023-04-01T00:59:50;5.33;;;4.10;;
9763;SDS011;4921;43.214;27.936;2023-04-01T01:02:20;6.10;;;4.40;;
9763;SDS011;4921;43.214;27.936;2023-04-01T01:04:49;8.47;;;4.93;;
9763;SDS011;4921;43.214;27.936;2023-04-01T01:07:19;14.33;;;10.03;;
9763;SDS011;4921;43.214;27.936;2023-04-01T01:09:55;18.17;;;12.07;;
9763;SDS011;4921;43.214;27.936;2023-04-01T01:12:30;20.10;;;13.87;;
9763;SDS011;4921;43.214;27.936;2023-04-01T01:15:06;23.60;;;15.50;;
9763;SDS011;4921;43.214;27.936;2023-04-01T01:17:44;18.97;;;14.37;;
9763;SDS011;4921;43.214;27.936;2023-04-01T01:26:38;18.67;;;13.77;;
9763;SDS011;4921;43.214;27.936;2023-04-01T01:29:16;20.53;;;14.27;;
9763;SDS011;4921;43.214;27.936;2023-04-01T01:32:05;24.97;;;16.70;;
9763;SDS011;4921;43.214;27.936;2023-04-01T01:34:38;19.50;;;14.73;;
9763;SDS011;4921;43.214;27.936;2023-04-01T01:37:15;21.00;;;15.47;;
9763;SDS011;4921;43.214;27.936;2023-04-01T01:39:46;20.83;;;14.90;;
9763;SDS011;4921;43.214;27.936;2023-04-01T01:42:22;19.20;;;14.73;;
9763;SDS011;4921;43.214;27.936;2023-04-01T01:44:52;16.40;;;14.03;;
9763;SDS011;4921;43.214;27.936;2023-04-01T01:47:22;18.00;;;13.53;;
9763;SDS011;4921;43.214;27.936;2023-04-01T01:49:51;22.13;;;11.50;;
9763;SDS011;4921;43.214;27.936;2023-04-01T01:52:21;20.53;;;12.60;;
9763;SDS011;4921;43.214;27.936;2023-04-01T01:54:49;18.03;;;12.93;;
9763;SDS011;4921;43.214;27.936;2023-04-01T01:57:16;18.40;;;12.23;;
9763;SDS011;4921;43.214;27.936;2023-04-01T01:59:45;19.33;;;12.93;;
9763;SDS011;4921;43.214;27.936;2023-04-01T02:02:14;16.37;;;12.83;;
9763;SDS011;4921;43.214;27.936;2023-04-01T02:04:43;19.60;;;14.47;;
9763;SDS011;4921;43.214;27.936;2023-04-01T02:07:13;20.03;;;13.17;;
9763;SDS011;4921;43.214;27.936;2023-04-01T02:09:47;19.03;;;13.00;;
9763;SDS011;4921;43.214;27.936;2023-04-01T02:12:15;18.87;;;12.60;;
9763;SDS011;4921;43.214;27.936;2023-04-01T02:14:45;16.30;;;12.77;;
9763;SDS011;4921;43.214;27.936;2023-04-01T02:17:17;17.23;;;12.80;;
9763;SDS011;4921;43.214;27.936;2023-04-01T02:19:46;18.17;;;12.93;;
9763;SDS011;4921;43.214;27.936;2023-04-01T02:22:16;18.60;;;12.77;;
9763;SDS011;4921;43.214;27.936;2023-04-01T02:24:48;18.77;;;13.07;;
9763;SDS011;4921;43.214;27.936;2023-04-01T02:27:16;17.87;;;12.40;;
9763;SDS011;4921;43.214;27.936;2023-04-01T02:29:44;20.07;;;13.57;;
9763;SDS011;4921;43.214;27.936;2023-04-01T02:32:11;16.23;;;12.10;;
9763;SDS011;4921;43.214;27.936;2023-04-01T02:34:40;13.13;;;10.23;;
9763;SDS011;4921;43.214;27.936;2023-04-01T02:37:08;14.57;;;10.47;;
9763;SDS011;4921;43.214;27.936;2023-04-01T02:39:35;10.20;;;7.47;;
9763;SDS011;4921;43.214;27.936;2023-04-01T02:42:04;12.87;;;7.57;;
9763;SDS011;4921;43.214;27.936;2023-04-01T02:44:31;13.23;;;9.30;;
9763;SDS011;4921;43.214;27.936;2023-04-01T02:46:59;10.20;;;8.90;;
9763;SDS011;4921;43.214;27.936;2023-04-01T02:49:25;13.63;;;9.17;;
9763;SDS011;4921;43.214;27.936;2023-04-01T02:51:53;11.70;;;8.73;;
9763;SDS011;4921;43.214;27.936;2023-04-01T02:54:20;14.03;;;9.03;;
9763;SDS011;4921;43.214;27.936;2023-04-01T02:56:47;9.67;;;8.30;;
9763;SDS011;4921;43.214;27.936;2023-04-01T02:59:15;10.10;;;9.00;;
9763;SDS011;4921;43.214;27.936;2023-04-01T03:01:42;13.00;;;8.37;;
9763;SDS011;4921;43.214;27.936;2023-04-01T03:04:09;14.20;;;8.27;;
9763;SDS011;4921;43.214;27.936;2023-04-01T03:06:36;12.50;;;8.57;;
9763;SDS011;4921;43.214;27.936;2023-04-01T03:09:03;12.53;;;7.67;;
9763;SDS011;4921;43.214;27.936;2023-04-01T03:11:30;12.53;;;8.50;;
9763;SDS011;4921;43.214;27.936;2023-04-01T03:13:57;10.67;;;8.60;;
9763;SDS011;4921;43.214;27.936;2023-04-01T03:16:26;9.37;;;7.73;;
9763;SDS011;4921;43.214;27.936;2023-04-01T03:18:53;12.23;;;7.30;;
9763;SDS011;4921;43.214;27.936;2023-04-01T03:21:22;11.07;;;7.27;;
9763;SDS011;4921;43.214;27.936;2023-04-01T03:23:50;14.43;;;7.43;;
9763;SDS011;4921;43.214;27.936;2023-04-01T03:26:18;11.17;;;7.20;;
9763;SDS011;4921;43.214;27.936;2023-04-01T03:28:45;13.37;;;7.80;;
9763;SDS011;4921;43.214;27.936;2023-04-01T03:31:12;9.83;;;6.57;;
9763;SDS011;4921;43.214;27.936;2023-04-01T03:33:42;9.73;;;7.43;;
9763;SDS011;4921;43.214;27.936;2023-04-01T03:36:09;8.17;;;7.00;;
9763;SDS011;4921;43.214;27.936;2023-04-01T03:38:37;11.67;;;6.07;;
9763;SDS011;4921;43.214;27.936;2023-04-01T03:41:05;12.77;;;6.70;;
9763;SDS011;4921;43.214;27.936;2023-04-01T03:43:32;11.00;;;6.53;;
9763;SDS011;4921;43.214;27.936;2023-04-01T03:45:59;8.87;;;6.00;;
9763;SDS011;4921;43.214;27.936;2023-04-01T03:48:26;11.63;;;6.43;;
9763;SDS011;4921;43.214;27.936;2023-04-01T03:50:55;18.53;;;10.40;;
9763;SDS011;4921;43.214;27.936;2023-04-01T03:53:22;16.07;;;9.50;;
9763;SDS011;4921;43.214;27.936;2023-04-01T03:55:49;20.60;;;10.60;;
9763;SDS011;4921;43.214;27.936;2023-04-01T03:58:17;21.33;;;14.30;;
9763;SDS011;4921;43.214;27.936;2023-04-01T04:00:44;21.90;;;16.03;;
9763;SDS011;4921;43.214;27.936;2023-04-01T04:03:11;21.13;;;15.17;;
9763;SDS011;4921;43.214;27.936;2023-04-01T04:05:45;22.63;;;15.67;;
9763;SDS011;4921;43.214;27.936;2023-04-01T04:08:14;24.50;;;16.10;;
9763;SDS011;4921;43.214;27.936;2023-04-01T04:10:42;22.57;;;16.63;;
9763;SDS011;4921;43.214;27.936;2023-04-01T04:13:09;23.47;;;15.23;;
9763;SDS011;4921;43.214;27.936;2023-04-01T04:15:36;23.27;;;14.53;;
9763;SDS011;4921;43.214;27.936;2023-04-01T04:18:04;15.87;;;13.90;;
9763;SDS011;4921;43.214;27.936;2023-04-01T04:20:31;19.33;;;15.40;;
9763;SDS011;4921;43.214;27.936;2023-04-01T04:22:59;23.63;;;14.23;;
9763;SDS011;4921;43.214;27.936;2023-04-01T04:25:28;21.17;;;15.20;;
9763;SDS011;4921;43.214;27.936;2023-04-01T04:27:55;21.93;;;14.07;;
9763;SDS011;4921;43.214;27.936;2023-04-01T04:30:22;24.67;;;15.50;;
9763;SDS011;4921;43.214;27.936;2023-04-01T04:32:49;22.57;;;16.33;;
9763;SDS011;4921;43.214;27.936;2023-04-01T04:35:16;18.37;;;13.80;;
9763;SDS011;4921;43.214;27.936;2023-04-01T04:37:43;22.77;;;15.20;;
9763;SDS011;4921;43.214;27.936;2023-04-01T04:40:10;20.60;;;15.50;;
9763;SDS011;4921;43.214;27.936;2023-04-01T04:42:39;24.53;;;18.03;;
9763;SDS011;4921;43.214;27.936;2023-04-01T04:45:06;25.07;;;19.27;;
9763;SDS011;4921;43.214;27.936;2023-04-01T04:47:33;27.07;;;19.80;;
9763;SDS011;4921;43.214;27.936;2023-04-01T04:50:00;24.83;;;18.50;;
9763;SDS011;4921;43.214;27.936;2023-04-01T04:52:27;24.70;;;18.70;;
9763;SDS011;4921;43.214;27.936;2023-04-01T04:54:54;20.97;;;16.33;;
9763;SDS011;4921;43.214;27.936;2023-04-01T04:57:21;26.87;;;17.17;;
9763;SDS011;4921;43.214;27.936;2023-04-01T04:59:49;21.33;;;16.73;;
9763;SDS011;4921;43.214;27.936;2023-04-01T05:02:16;21.13;;;18.57;;
9763;SDS011;4921;43.214;27.936;2023-04-01T05:04:43;26.80;;;19.10;;
9763;SDS011;4921;43.214;27.936;2023-04-01T05:07:11;19.83;;;15.87;;
9763;SDS011;4921;43.214;27.936;2023-04-01T05:09:38;17.93;;;13.73;;
9763;SDS011;4921;43.214;27.936;2023-04-01T05:12:05;17.67;;;10.67;;
9763;SDS011;4921;43.214;27.936;2023-04-01T05:14:32;30.10;;;16.77;;
9763;SDS011;4921;43.214;27.936;2023-04-01T05:17:01;27.47;;;17.30;;
9763;SDS011;4921;43.214;27.936;2023-04-01T05:19:28;28.00;;;18.17;;
9763;SDS011;4921;43.214;27.936;2023-04-01T05:21:55;27.60;;;17.83;;
9763;SDS011;4921;43.214;27.936;2023-04-01T05:24:22;28.27;;;17.50;;
9763;SDS011;4921;43.214;27.936;2023-04-01T05:26:48;26.77;;;18.27;;
9763;SDS011;4921;43.214;27.936;2023-04-01T05:29:16;29.17;;;17.70;;
9763;SDS011;4921;43.214;27.936;2023-04-01T05:31:42;26.67;;;18.47;;
9763;SDS011;4921;43.214;27.936;2023-04-01T05:34:11;28.37;;;18.80;;
9763;SDS011;4921;43.214;27.936;2023-04-01T05:36:39;26.87;;;17.13;;
9763;SDS011;4921;43.214;27.936;2023-04-01T05:39:06;23.23;;;14.43;;
9763;SDS011;4921;43.214;27.936;2023-04-01T05:41:34;24.77;;;17.27;;
9763;SDS011;4921;43.214;27.936;2023-04-01T05:44:02;26.13;;;15.37;;
9763;SDS011;4921;43.214;27.936;2023-04-01T05:46:29;17.77;;;9.27;;
9763;SDS011;4921;43.214;27.936;2023-04-01T05:48:56;30.27;;;14.10;;
9763;SDS011;4921;43.214;27.936;2023-04-01T05:51:25;17.33;;;10.07;;
9763;SDS011;4921;43.214;27.936;2023-04-01T05:53:52;14.40;;;8.63;;
9763;SDS011;4921;43.214;27.936;2023-04-01T05:56:19;25.80;;;14.07;;
9763;SDS011;4921;43.214;27.936;2023-04-01T05:58:46;26.53;;;12.37;;
9763;SDS011;4921;43.214;27.936;2023-04-01T06:01:19;21.73;;;11.63;;
9763;SDS011;4921;43.214;27.936;2023-04-01T06:03:46;16.50;;;10.20;;
9763;SDS011;4921;43.214;27.936;2023-04-01T06:06:13;16.03;;;7.50;;
9763;SDS011;4921;43.214;27.936;2023-04-01T06:08:43;9.37;;;5.47;;
9763;SDS011;4921;43.214;27.936;2023-04-01T06:11:17;12.20;;;5.60;;
9763;SDS011;4921;43.214;27.936;2023-04-01T06:13:54;9.97;;;4.57;;
9763;SDS011;4921;43.214;27.936;2023-04-01T06:16:35;9.67;;;6.13;;
9763;SDS011;4921;43.214;27.936;2023-04-01T06:19:14;7.40;;;4.07;;
9763;SDS011;4921;43.214;27.936;2023-04-01T06:22:11;9.27;;;4.10;;
9763;SDS011;4921;43.214;27.936;2023-04-01T06:24:57;7.53;;;3.57;;
9763;SDS011;4921;43.214;27.936;2023-04-01T06:27:48;4.67;;;3.67;;
9763;SDS011;4921;43.214;27.936;2023-04-01T06:30:35;5.53;;;3.70;;
9763;SDS011;4921;43.214;27.936;2023-04-01T06:39:15;7.07;;;4.03;;
9763;SDS011;4921;43.214;27.936;2023-04-01T06:42:01;8.27;;;4.07;;
9763;SDS011;4921;43.214;27.936;2023-04-01T06:44:41;6.20;;;3.57;;
9763;SDS011;4921;43.214;27.936;2023-04-01T06:50:11;12.57;;;5.47;;
9763;SDS011;4921;43.214;27.936;2023-04-01T06:52:48;6.97;;;4.33;;
9763;SDS011;4921;43.214;27.936;2023-04-01T06:55:26;7.20;;;3.90;;
9763;SDS011;4921;43.214;27.936;2023-04-01T06:57:59;8.17;;;3.50;;
9763;SDS011;4921;43.214;27.936;2023-04-01T07:00:31;8.33;;;3.33;;
9763;SDS011;4921;43.214;27.936;2023-04-01T07:03:06;11.07;;;3.73;;
9763;SDS011;4921;43.214;27.936;2023-04-01T07:05:40;11.33;;;3.67;;
9763;SDS011;4921;43.214;27.936;2023-04-01T07:08:10;7.63;;;4.40;;
9763;SDS011;4921;43.214;27.936;2023-04-01T07:10:42;7.50;;;4.40;;
9763;SDS011;4921;43.214;27.936;2023-04-01T07:13:14;9.60;;;4.90;;
9763;SDS011;4921;43.214;27.936;2023-04-01T07:15:49;9.93;;;4.43;;
9763;SDS011;4921;43.214;27.936;2023-04-01T07:18:28;7.43;;;4.47;;
9763;SDS011;4921;43.214;27.936;2023-04-01T07:21:00;5.43;;;4.13;;
9763;SDS011;4921;43.214;27.936;2023-04-01T07:23:28;7.43;;;3.83;;
9763;SDS011;4921;43.214;27.936;2023-04-01T07:26:04;7.37;;;3.60;;
9763;SDS011;4921;43.214;27.936;2023-04-01T07:28:40;8.43;;;4.30;;
9763;SDS011;4921;43.214;27.936;2023-04-01T07:31:10;5.57;;;4.10;;
9763;SDS011;4921;43.214;27.936;2023-04-01T07:33:49;8.17;;;3.80;;
9763;SDS011;4921;43.214;27.936;2023-04-01T07:36:24;8.93;;;4.50;;
9763;SDS011;4921;43.214;27.936;2023-04-01T07:39:00;4.40;;;3.57;;
9763;SDS011;4921;43.214;27.936;2023-04-01T07:41:35;15.07;;;4.37;;
9763;SDS011;4921;43.214;27.936;2023-04-01T07:44:18;10.10;;;4.50;;
9763;SDS011;4921;43.214;27.936;2023-04-01T07:49:56;9.77;;;3.93;;
9763;SDS011;4921;43.214;27.936;2023-04-01T07:52:38;5.70;;;3.60;;
9763;SDS011;4921;43.214;27.936;2023-04-01T07:55:12;6.73;;;4.13;;
9763;SDS011;4921;43.214;27.936;2023-04-01T07:57:43;8.43;;;3.93;;
9763;SDS011;4921;43.214;27.936;2023-04-01T08:00:20;8.47;;;3.93;;
9763;SDS011;4921;43.214;27.936;2023-04-01T08:02:55;9.40;;;4.80;;
9763;SDS011;4921;43.214;27.936;2023-04-01T08:05:40;8.03;;;4.27;;
9763;SDS011;4921;43.214;27.936;2023-04-01T08:08:18;10.50;;;4.03;;
9763;SDS011;4921;43.214;27.936;2023-04-01T08:10:52;11.07;;;4.07;;
9763;SDS011;4921;43.214;27.936;2023-04-01T08:13:26;7.90;;;3.97;;
9763;SDS011;4921;43.214;27.936;2023-04-01T08:16:05;8.50;;;4.10;;
9763;SDS011;4921;43.214;27.936;2023-04-01T08:18:39;5.70;;;4.10;;
9763;SDS011;4921;43.214;27.936;2023-04-01T08:21:14;8.57;;;3.20;;
9763;SDS011;4921;43.214;27.936;2023-04-01T08:23:46;5.97;;;3.43;;
9763;SDS011;4921;43.214;27.936;2023-04-01T08:26:17;9.73;;;3.63;;
9763;SDS011;4921;43.214;27.936;2023-04-01T08:28:53;6.63;;;3.97;;
9763;SDS011;4921;43.214;27.936;2023-04-01T08:31:25;9.63;;;3.67;;
9763;SDS011;4921;43.214;27.936;2023-04-01T08:33:59;12.63;;;4.10;;
9763;SDS011;4921;43.214;27.936;2023-04-01T08:36:28;8.33;;;3.90;;
9763;SDS011;4921;43.214;27.936;2023-04-01T08:38:59;4.20;;;2.90;;
9763;SDS011;4921;43.214;27.936;2023-04-01T08:41:37;5.33;;;3.10;;
9763;SDS011;4921;43.214;27.936;2023-04-01T08:53:43;14.30;;;3.70;;
9763;SDS011;4921;43.214;27.936;2023-04-01T08:56:22;7.27;;;4.03;;
9763;SDS011;4921;43.214;27.936;2023-04-01T09:02:04;9.20;;;4.23;;
9763;SDS011;4921;43.214;27.936;2023-04-01T09:05:05;8.00;;;4.47;;
9763;SDS011;4921;43.214;27.936;2023-04-01T09:07:49;10.17;;;3.97;;
9763;SDS011;4921;43.214;27.936;2023-04-01T09:10:38;7.10;;;4.30;;
9763;SDS011;4921;43.214;27.936;2023-04-01T09:16:42;6.17;;;3.30;;
9763;SDS011;4921;43.214;27.936;2023-04-01T09:19:40;9.63;;;3.80;;
9763;SDS011;4921;43.214;27.936;2023-04-01T09:22:21;9.00;;;3.77;;
9763;SDS011;4921;43.214;27.936;2023-04-01T09:27:56;7.20;;;3.63;;
9763;SDS011;4921;43.214;27.936;2023-04-01T09:30:34;8.33;;;4.03;;
9763;SDS011;4921;43.214;27.936;2023-04-01T09:33:23;13.87;;;4.00;;
9763;SDS011;4921;43.214;27.936;2023-04-01T09:36:17;10.63;;;3.93;;
9763;SDS011;4921;43.214;27.936;2023-04-01T09:38:59;5.93;;;3.43;;
9763;SDS011;4921;43.214;27.936;2023-04-01T09:41:36;7.40;;;4.17;;
9763;SDS011;4921;43.214;27.936;2023-04-01T09:44:14;9.17;;;4.47;;
9763;SDS011;4921;43.214;27.936;2023-04-01T09:46:50;15.23;;;4.90;;
9763;SDS011;4921;43.214;27.936;2023-04-01T09:49:37;10.07;;;5.03;;
9763;SDS011;4921;43.214;27.936;2023-04-01T09:52:18;13.00;;;4.77;;
9763;SDS011;4921;43.214;27.936;2023-04-01T09:55:00;13.70;;;4.20;;
9763;SDS011;4921;43.214;27.936;2023-04-01T09:58:04;13.30;;;4.40;;
9763;SDS011;4921;43.214;27.936;2023-04-01T10:00:55;10.83;;;4.13;;
9763;SDS011;4921;43.214;27.936;2023-04-01T10:07:18;11.30;;;4.30;;
9763;SDS011;4921;43.214;27.936;2023-04-01T10:16:02;11.30;;;4.37;;
9763;SDS011;4921;43.214;27.936;2023-04-01T10:18:55;10.63;;;4.97;;
9763;SDS011;4921;43.214;27.936;2023-04-01T10:21:58;11.27;;;4.67;;
9763;SDS011;4921;43.214;27.936;2023-04-01T10:27:57;14.53;;;5.07;;
9763;SDS011;4921;43.214;27.936;2023-04-01T10:36:59;18.23;;;5.60;;
9763;SDS011;4921;43.214;27.936;2023-04-01T10:39:33;10.70;;;5.47;;
9763;SDS011;4921;43.214;27.936;2023-04-01T10:42:18;12.87;;;5.03;;
9763;SDS011;4921;43.214;27.936;2023-04-01T10:48:21;13.47;;;5.73;;
9763;SDS011;4921;43.214;27.936;2023-04-01T10:54:13;15.80;;;5.67;;
9763;SDS011;4921;43.214;27.936;2023-04-01T10:56:55;10.13;;;4.83;;
9763;SDS011;4921;43.214;27.936;2023-04-01T10:59:36;10.43;;;4.93;;
9763;SDS011;4921;43.214;27.936;2023-04-01T11:02:40;14.50;;;5.17;;
9763;SDS011;4921;43.214;27.936;2023-04-01T11:14:59;15.07;;;5.20;;
9763;SDS011;4921;43.214;27.936;2023-04-01T11:18:12;11.50;;;5.27;;
9763;SDS011;4921;43.214;27.936;2023-04-01T11:24:07;12.83;;;5.00;;
9763;SDS011;4921;43.214;27.936;2023-04-01T11:26:52;12.13;;;4.63;;
9763;SDS011;4921;43.214;27.936;2023-04-01T11:29:41;14.47;;;4.87;;
9763;SDS011;4921;43.214;27.936;2023-04-01T11:32:43;15.23;;;5.20;;
9763;SDS011;4921;43.214;27.936;2023-04-01T11:35:30;11.33;;;4.87;;
9763;SDS011;4921;43.214;27.936;2023-04-01T11:38:18;14.10;;;4.83;;
9763;SDS011;4921;43.214;27.936;2023-04-01T11:43:24;12.97;;;4.33;;
9763;SDS011;4921;43.214;27.936;2023-04-01T11:46:00;8.57;;;4.27;;
9763;SDS011;4921;43.214;27.936;2023-04-01T11:48:38;9.33;;;4.70;;
9763;SDS011;4921;43.214;27.936;2023-04-01T11:51:39;15.77;;;4.60;;
9763;SDS011;4921;43.214;27.936;2023-04-01T11:54:20;13.20;;;4.50;;
9763;SDS011;4921;43.214;27.936;2023-04-01T11:57:05;8.00;;;4.50;;
9763;SDS011;4921;43.214;27.936;2023-04-01T12:02:23;10.53;;;4.53;;
9763;SDS011;4921;43.214;27.936;2023-04-01T12:05:03;17.37;;;4.93;;
9763;SDS011;4921;43.214;27.936;2023-04-01T12:07:53;11.40;;;5.03;;
9763;SDS011;4921;43.214;27.936;2023-04-01T12:10:33;10.67;;;5.07;;
9763;SDS011;4921;43.214;27.936;2023-04-01T12:13:08;12.63;;;4.40;;
9763;SDS011;4921;43.214;27.936;2023-04-01T12:15:55;11.93;;;4.27;;
9763;SDS011;4921;43.214;27.936;2023-04-01T12:18:35;15.90;;;4.70;;
9763;SDS011;4921;43.214;27.936;2023-04-01T12:21:11;11.27;;;4.43;;
9763;SDS011;4921;43.214;27.936;2023-04-01T12:24:01;12.57;;;4.93;;
9763;SDS011;4921;43.214;27.936;2023-04-01T12:26:52;9.43;;;4.80;;
9763;SDS011;4921;43.214;27.936;2023-04-01T12:29:40;10.73;;;5.00;;
9763;SDS011;4921;43.214;27.936;2023-04-01T12:32:20;12.40;;;4.87;;
9763;SDS011;4921;43.214;27.936;2023-04-01T12:34:58;9.90;;;5.27;;
9763;SDS011;4921;43.214;27.936;2023-04-01T12:37:39;11.57;;;4.93;;
9763;SDS011;4921;43.214;27.936;2023-04-01T12:40:30;14.70;;;4.80;;
9763;SDS011;4921;43.214;27.936;2023-04-01T12:43:17;16.90;;;5.63;;
9763;SDS011;4921;43.214;27.936;2023-04-01T12:45:57;13.03;;;5.77;;
9763;SDS011;4921;43.214;27.936;2023-04-01T12:54:47;11.07;;;4.50;;
9763;SDS011;4921;43.214;27.936;2023-04-01T12:57:34;9.87;;;5.03;;
9763;SDS011;4921;43.214;27.936;2023-04-01T13:03:35;13.07;;;5.40;;
9763;SDS011;4921;43.214;27.936;2023-04-01T13:06:18;16.77;;;6.23;;
9763;SDS011;4921;43.214;27.936;2023-04-01T13:08:52;17.23;;;6.67;;
9763;SDS011;4921;43.214;27.936;2023-04-01T13:11:30;19.57;;;6.17;;
9763;SDS011;4921;43.214;27.936;2023-04-01T13:14:17;14.00;;;6.13;;
9763;SDS011;4921;43.214;27.936;2023-04-01T13:16:55;12.10;;;5.77;;
9763;SDS011;4921;43.214;27.936;2023-04-01T13:19:31;18.23;;;6.57;;
9763;SDS011;4921;43.214;27.936;2023-04-01T13:22:04;19.70;;;6.80;;
9763;SDS011;4921;43.214;27.936;2023-04-01T13:24:40;11.10;;;5.53;;
9763;SDS011;4921;43.214;27.936;2023-04-01T13:27:17;17.50;;;6.90;;
9763;SDS011;4921;43.214;27.936;2023-04-01T13:29:51;18.73;;;6.60;;
9763;SDS011;4921;43.214;27.936;2023-04-01T13:32:29;16.97;;;6.43;;
9763;SDS011;4921;43.214;27.936;2023-04-01T13:35:10;19.83;;;6.23;;
9763;SDS011;4921;43.214;27.936;2023-04-01T13:38:00;16.77;;;6.63;;
9763;SDS011;4921;43.214;27.936;2023-04-01T13:40:43;16.30;;;5.83;;
9763;SDS011;4921;43.214;27.936;2023-04-01T13:43:21;13.53;;;4.83;;
9763;SDS011;4921;43.214;27.936;2023-04-01T13:46:05;18.50;;;5.77;;
9763;SDS011;4921;43.214;27.936;2023-04-01T13:48:46;14.23;;;4.70;;
9763;SDS011;4921;43.214;27.936;2023-04-01T13:54:36;18.53;;;5.10;;
9763;SDS011;4921;43.214;27.936;2023-04-01T13:57:23;13.00;;;4.67;;
9763;SDS011;4921;43.214;27.936;2023-04-01T14:00:06;12.47;;;4.90;;
9763;SDS011;4921;43.214;27.936;2023-04-01T14:02:54;12.60;;;4.77;;
9763;SDS011;4921;43.214;27.936;2023-04-01T14:05:50;15.00;;;4.60;;
9763;SDS011;4921;43.214;27.936;2023-04-01T14:08:42;11.73;;;4.43;;
9763;SDS011;4921;43.214;27.936;2023-04-01T14:11:27;12.57;;;4.37;;
9763;SDS011;4921;43.214;27.936;2023-04-01T14:14:05;15.67;;;4.10;;
9763;SDS011;4921;43.214;27.936;2023-04-01T14:16:56;15.40;;;5.10;;
9763;SDS011;4921;43.214;27.936;2023-04-01T14:19:39;13.57;;;4.70;;
9763;SDS011;4921;43.214;27.936;2023-04-01T14:22:29;16.30;;;4.63;;
9763;SDS011;4921;43.214;27.936;2023-04-01T14:25:13;13.10;;;4.97;;
9763;SDS011;4921;43.214;27.936;2023-04-01T14:27:59;12.67;;;4.77;;
9763;SDS011;4921;43.214;27.936;2023-04-01T14:30:37;11.70;;;4.60;;
9763;SDS011;4921;43.214;27.936;2023-04-01T14:33:15;11.57;;;4.77;;
9763;SDS011;4921;43.214;27.936;2023-04-01T14:35:59;10.63;;;4.80;;
9763;SDS011;4921;43.214;27.936;2023-04-01T14:38:50;13.67;;;4.83;;
9763;SDS011;4921;43.214;27.936;2023-04-01T14:41:30;17.20;;;5.10;;
9763;SDS011;4921;43.214;27.936;2023-04-01T14:44:15;10.60;;;4.83;;
9763;SDS011;4921;43.214;27.936;2023-04-01T14:47:01;10.20;;;4.50;;
9763;SDS011;4921;43.214;27.936;2023-04-01T14:49:41;12.27;;;5.00;;
9763;SDS011;4921;43.214;27.936;2023-04-01T14:52:13;13.90;;;4.53;;
9763;SDS011;4921;43.214;27.936;2023-04-01T14:54:44;15.43;;;5.17;;
9763;SDS011;4921;43.214;27.936;2023-04-01T14:57:13;13.50;;;4.87;;
9763;SDS011;4921;43.214;27.936;2023-04-01T14:59:46;14.57;;;5.37;;
9763;SDS011;4921;43.214;27.936;2023-04-01T15:02:22;12.47;;;4.73;;
9763;SDS011;4921;43.214;27.936;2023-04-01T15:05:00;16.13;;;5.53;;
9763;SDS011;4921;43.214;27.936;2023-04-01T15:08:01;17.53;;;4.80;;
9763;SDS011;4921;43.214;27.936;2023-04-01T15:10:43;15.10;;;5.47;;
9763;SDS011;4921;43.214;27.936;2023-04-01T15:13:20;15.73;;;5.00;;
9763;SDS011;4921;43.214;27.936;2023-04-01T15:16:04;9.87;;;4.80;;
9763;SDS011;4921;43.214;27.936;2023-04-01T15:18:42;16.50;;;5.17;;
9763;SDS011;4921;43.214;27.936;2023-04-01T15:21:18;16.03;;;5.23;;
9763;SDS011;4921;43.214;27.936;2023-04-01T15:23:58;18.37;;;5.17;;
9763;SDS011;4921;43.214;27.936;2023-04-01T15:29:41;12.47;;;4.57;;
9763;SDS011;4921;43.214;27.936;2023-04-01T15:32:24;16.13;;;4.80;;
9763;SDS011;4921;43.214;27.936;2023-04-01T15:35:03;12.83;;;4.70;;
9763;SDS011;4921;43.214;27.936;2023-04-01T15:37:45;13.27;;;4.93;;
9763;SDS011;4921;43.214;27.936;2023-04-01T15:40:20;13.37;;;4.90;;
9763;SDS011;4921;43.214;27.936;2023-04-01T15:45:48;7.27;;;4.30;;
9763;SDS011;4921;43.214;27.936;2023-04-01T15:48:33;13.23;;;4.80;;
9763;SDS011;4921;43.214;27.936;2023-04-01T15:51:16;13.47;;;5.00;;
9763;SDS011;4921;43.214;27.936;2023-04-01T15:53:56;12.70;;;5.07;;
9763;SDS011;4921;43.214;27.936;2023-04-01T15:56:44;14.30;;;5.07;;
9763;SDS011;4921;43.214;27.936;2023-04-01T15:59:22;12.50;;;5.03;;
9763;SDS011;4921;43.214;27.936;2023-04-01T16:01:59;15.13;;;5.60;;
9763;SDS011;4921;43.214;27.936;2023-04-01T16:04:47;13.67;;;5.10;;
9763;SDS011;4921;43.214;27.936;2023-04-01T16:07:27;19.27;;;5.23;;
9763;SDS011;4921;43.214;27.936;2023-04-01T16:16:12;13.00;;;4.27;;
9763;SDS011;4921;43.214;27.936;2023-04-01T16:18:51;17.50;;;5.40;;
9763;SDS011;4921;43.214;27.936;2023-04-01T16:21:35;12.53;;;4.27;;
9763;SDS011;4921;43.214;27.936;2023-04-01T16:24:05;17.73;;;5.23;;
9763;SDS011;4921;43.214;27.936;2023-04-01T16:26:44;11.47;;;5.23;;
9763;SDS011;4921;43.214;27.936;2023-04-01T16:29:19;14.27;;;5.63;;
9763;SDS011;4921;43.214;27.936;2023-04-01T16:31:55;15.40;;;5.37;;
9763;SDS011;4921;43.214;27.936;2023-04-01T16:34:34;13.33;;;4.83;;
9763;SDS011;4921;43.214;27.936;2023-04-01T16:37:05;14.07;;;4.47;;
9763;SDS011;4921;43.214;27.936;2023-04-01T16:39:41;20.13;;;5.50;;
9763;SDS011;4921;43.214;27.936;2023-04-01T16:45:17;15.63;;;6.07;;
9763;SDS011;4921;43.214;27.936;2023-04-01T16:47:53;10.87;;;5.10;;
9763;SDS011;4921;43.214;27.936;2023-04-01T16:50:23;16.27;;;4.83;;
9763;SDS011;4921;43.214;27.936;2023-04-01T16:52:54;18.20;;;7.40;;
9763;SDS011;4921;43.214;27.936;2023-04-01T16:55:34;20.23;;;6.43;;
9763;SDS011;4921;43.214;27.936;2023-04-01T16:58:07;16.77;;;4.87;;
9763;SDS011;4921;43.214;27.936;2023-04-01T17:00:44;12.93;;;4.20;;
9763;SDS011;4921;43.214;27.936;2023-04-01T17:03:16;16.97;;;5.20;;
9763;SDS011;4921;43.214;27.936;2023-04-01T17:05:53;18.60;;;5.70;;
9763;SDS011;4921;43.214;27.936;2023-04-01T17:08:30;17.20;;;5.70;;
9763;SDS011;4921;43.214;27.936;2023-04-01T17:11:10;18.37;;;5.83;;
9763;SDS011;4921;43.214;27.936;2023-04-01T17:13:47;16.10;;;5.30;;
9763;SDS011;4921;43.214;27.936;2023-04-01T17:16:30;17.93;;;5.70;;
9763;SDS011;4921;43.214;27.936;2023-04-01T17:19:14;15.83;;;5.50;;
9763;SDS011;4921;43.214;27.936;2023-04-01T17:22:02;15.37;;;4.80;;
9763;SDS011;4921;43.214;27.936;2023-04-01T17:24:44;16.37;;;5.50;;
9763;SDS011;4921;43.214;27.936;2023-04-01T17:27:25;16.80;;;5.00;;